< < Back
Terminal Aerodrome Forecast


Current Version              Previous Versions:   1  2  3  4  5  6  7  8  9  

Terminal Aerodrome Forecast

114
FTUS44 KBMX 030520
TAFANB
TAF
KANB 030520Z 0306/0406 30003KT P6SM BKN200
      TEMPO 0309/0313 4SM BR=

Latest METAR

757
SAUS70 KWBC 031156
MTRANB
METAR KANB 031153Z AUTO 00000KT 3SM -RA BR FEW120 23/22 A3003 RMK AO2
RAB25 SLP161 P0001 60001 70001 T02280217 10239 20228
53009


USA.gov is the U.S. government's official web portal to all federal, state and local government web resources and services.